sensor_id;sensor_type;location;lat;lon;timestamp;temperature;humidity
31309;DHT22;17936;52.446;10.840;2023-03-13T00:01:18;7.40;99.90
31309;DHT22;17936;52.446;10.840;2023-03-13T00:03:44;7.50;99.90
31309;DHT22;17936;52.446;10.840;2023-03-13T00:06:11;7.60;99.90
31309;DHT22;17936;52.446;10.840;2023-03-13T00:08:36;7.60;99.90
31309;DHT22;17936;52.446;10.840;2023-03-13T00:11:06;7.70;99.90
31309;DHT22;17936;52.446;10.840;2023-03-13T00:13:32;7.70;99.90
31309;DHT22;17936;52.446;10.840;2023-03-13T00:16:06;7.60;99.90
31309;DHT22;17936;52.446;10.840;2023-03-13T00:18:32;7.70;99.90
31309;DHT22;17936;52.446;10.840;2023-03-13T00:21:03;7.80;99.90
31309;DHT22;17936;52.446;10.840;2023-03-13T00:23:29;7.70;99.90
31309;DHT22;17936;52.446;10.840;2023-03-13T00:25:56;7.60;99.90
31309;DHT22;17936;52.446;10.840;2023-03-13T00:28:22;7.70;99.90
31309;DHT22;17936;52.446;10.840;2023-03-13T00:30:48;7.70;99.90
31309;DHT22;17936;52.446;10.840;2023-03-13T00:33:13;7.70;99.90
31309;DHT22;17936;52.446;10.840;2023-03-13T00:35:39;7.80;99.90
31309;DHT22;17936;52.446;10.840;2023-03-13T00:38:04;7.80;99.90
31309;DHT22;17936;52.446;10.840;2023-03-13T00:40:30;7.90;99.90
31309;DHT22;17936;52.446;10.840;2023-03-13T00:42:55;7.90;99.90
31309;DHT22;17936;52.446;10.840;2023-03-13T00:45:21;8.10;99.90
31309;DHT22;17936;52.446;10.840;2023-03-13T00:47:46;7.90;99.90
31309;DHT22;17936;52.446;10.840;2023-03-13T00:50:14;7.80;99.90
31309;DHT22;17936;52.446;10.840;2023-03-13T00:52:40;8.00;99.90
31309;DHT22;17936;52.446;10.840;2023-03-13T00:55:06;8.10;99.90
31309;DHT22;17936;52.446;10.840;2023-03-13T00:57:31;8.00;99.90
31309;DHT22;17936;52.446;10.840;2023-03-13T01:00:03;8.00;99.90
31309;DHT22;17936;52.446;10.840;2023-03-13T01:02:30;8.00;99.90
31309;DHT22;17936;52.446;10.840;2023-03-13T01:04:55;8.00;99.90
31309;DHT22;17936;52.446;10.840;2023-03-13T01:07:21;7.90;99.90
31309;DHT22;17936;52.446;10.840;2023-03-13T01:09:46;8.10;99.90
31309;DHT22;17936;52.446;10.840;2023-03-13T01:12:12;8.10;99.90
31309;DHT22;17936;52.446;10.840;2023-03-13T01:14:37;8.10;99.90
31309;DHT22;17936;52.446;10.840;2023-03-13T01:17:03;8.00;99.90
31309;DHT22;17936;52.446;10.840;2023-03-13T01:19:28;8.00;99.90
31309;DHT22;17936;52.446;10.840;2023-03-13T01:21:54;8.10;99.90
31309;DHT22;17936;52.446;10.840;2023-03-13T01:24:19;8.10;99.90
31309;DHT22;17936;52.446;10.840;2023-03-13T01:26:45;8.10;99.90
31309;DHT22;17936;52.446;10.840;2023-03-13T01:29:11;8.10;99.90
31309;DHT22;17936;52.446;10.840;2023-03-13T01:31:37;8.10;99.90
31309;DHT22;17936;52.446;10.840;2023-03-13T01:34:04;8.00;99.90
31309;DHT22;17936;52.446;10.840;2023-03-13T01:36:30;8.00;99.90
31309;DHT22;17936;52.446;10.840;2023-03-13T01:38:58;8.00;99.90
31309;DHT22;17936;52.446;10.840;2023-03-13T01:41:24;8.00;99.90
31309;DHT22;17936;52.446;10.840;2023-03-13T01:43:51;8.10;99.90
31309;DHT22;17936;52.446;10.840;2023-03-13T01:49:06;8.20;99.90
31309;DHT22;17936;52.446;10.840;2023-03-13T01:51:38;8.20;99.90
31309;DHT22;17936;52.446;10.840;2023-03-13T01:54:18;8.10;99.90
31309;DHT22;17936;52.446;10.840;2023-03-13T01:56:50;8.20;99.90
31309;DHT22;17936;52.446;10.840;2023-03-13T01:59:20;8.30;99.90
31309;DHT22;17936;52.446;10.840;2023-03-13T02:01:48;8.20;99.90
31309;DHT22;17936;52.446;10.840;2023-03-13T02:04:16;8.30;99.90
31309;DHT22;17936;52.446;10.840;2023-03-13T02:06:46;8.30;99.90
31309;DHT22;17936;52.446;10.840;2023-03-13T02:09:18;8.30;99.90
31309;DHT22;17936;52.446;10.840;2023-03-13T02:14:32;8.30;99.90
31309;DHT22;17936;52.446;10.840;2023-03-13T02:16:59;8.40;99.90
31309;DHT22;17936;52.446;10.840;2023-03-13T02:19:41;8.50;99.90
31309;DHT22;17936;52.446;10.840;2023-03-13T02:27:34;8.50;99.90
31309;DHT22;17936;52.446;10.840;2023-03-13T02:30:00;8.60;99.90
31309;DHT22;17936;52.446;10.840;2023-03-13T02:32:27;8.50;99.90
31309;DHT22;17936;52.446;10.840;2023-03-13T02:34:58;8.50;99.90
31309;DHT22;17936;52.446;10.840;2023-03-13T02:37:27;8.50;99.90
31309;DHT22;17936;52.446;10.840;2023-03-13T02:39:55;8.10;99.90
31309;DHT22;17936;52.446;10.840;2023-03-13T02:42:21;8.30;99.90
31309;DHT22;17936;52.446;10.840;2023-03-13T02:44:48;8.50;99.90
31309;DHT22;17936;52.446;10.840;2023-03-13T02:47:20;8.60;99.90
31309;DHT22;17936;52.446;10.840;2023-03-13T02:49:56;8.60;99.90
31309;DHT22;17936;52.446;10.840;2023-03-13T02:52:33;8.50;99.90
31309;DHT22;17936;52.446;10.840;2023-03-13T02:55:05;8.60;99.90
31309;DHT22;17936;52.446;10.840;2023-03-13T02:57:32;8.60;99.90
31309;DHT22;17936;52.446;10.840;2023-03-13T02:59:59;8.40;99.90
31309;DHT22;17936;52.446;10.840;2023-03-13T03:02:25;8.50;99.90
31309;DHT22;17936;52.446;10.840;2023-03-13T03:04:50;8.40;99.90
31309;DHT22;17936;52.446;10.840;2023-03-13T03:07:16;8.40;99.90
31309;DHT22;17936;52.446;10.840;2023-03-13T03:09:42;8.40;99.90
31309;DHT22;17936;52.446;10.840;2023-03-13T03:12:07;8.40;99.90
31309;DHT22;17936;52.446;10.840;2023-03-13T03:14:33;8.50;99.90
31309;DHT22;17936;52.446;10.840;2023-03-13T03:16:59;8.30;99.90
31309;DHT22;17936;52.446;10.840;2023-03-13T03:19:24;8.40;99.90
31309;DHT22;17936;52.446;10.840;2023-03-13T03:21:50;8.20;99.90
31309;DHT22;17936;52.446;10.840;2023-03-13T03:24:15;8.20;99.90
31309;DHT22;17936;52.446;10.840;2023-03-13T03:26:41;8.00;99.90
31309;DHT22;17936;52.446;10.840;2023-03-13T03:29:06;8.10;99.90
31309;DHT22;17936;52.446;10.840;2023-03-13T03:31:35;7.90;99.90
31309;DHT22;17936;52.446;10.840;2023-03-13T03:34:01;7.90;99.90
31309;DHT22;17936;52.446;10.840;2023-03-13T03:36:26;7.90;99.90
31309;DHT22;17936;52.446;10.840;2023-03-13T03:38:53;7.80;99.90
31309;DHT22;17936;52.446;10.840;2023-03-13T03:41:18;7.80;99.90
31309;DHT22;17936;52.446;10.840;2023-03-13T03:43:44;7.70;99.90
31309;DHT22;17936;52.446;10.840;2023-03-13T03:46:11;7.80;99.90
31309;DHT22;17936;52.446;10.840;2023-03-13T03:48:37;7.80;99.90
31309;DHT22;17936;52.446;10.840;2023-03-13T03:51:03;7.80;99.90
31309;DHT22;17936;52.446;10.840;2023-03-13T03:53:29;7.70;99.90
31309;DHT22;17936;52.446;10.840;2023-03-13T03:55:55;7.80;99.90
31309;DHT22;17936;52.446;10.840;2023-03-13T03:58:20;7.80;99.90
31309;DHT22;17936;52.446;10.840;2023-03-13T04:00:46;7.90;99.90
31309;DHT22;17936;52.446;10.840;2023-03-13T04:03:13;7.80;99.90
31309;DHT22;17936;52.446;10.840;2023-03-13T04:05:39;7.90;99.90
31309;DHT22;17936;52.446;10.840;2023-03-13T04:08:05;7.80;99.90
31309;DHT22;17936;52.446;10.840;2023-03-13T04:10:31;7.80;99.90
31309;DHT22;17936;52.446;10.840;2023-03-13T04:12:57;7.70;99.90
31309;DHT22;17936;52.446;10.840;2023-03-13T04:15:24;7.60;99.90
31309;DHT22;17936;52.446;10.840;2023-03-13T04:17:49;7.70;99.90
31309;DHT22;17936;52.446;10.840;2023-03-13T04:20:15;7.70;99.90
31309;DHT22;17936;52.446;10.840;2023-03-13T04:22:40;7.70;99.90
31309;DHT22;17936;52.446;10.840;2023-03-13T04:25:07;7.80;99.90
31309;DHT22;17936;52.446;10.840;2023-03-13T04:27:33;7.80;99.90
31309;DHT22;17936;52.446;10.840;2023-03-13T04:29:59;7.70;99.90
31309;DHT22;17936;52.446;10.840;2023-03-13T04:32:24;7.70;99.90
31309;DHT22;17936;52.446;10.840;2023-03-13T04:34:50;7.70;99.90
31309;DHT22;17936;52.446;10.840;2023-03-13T04:37:16;7.80;99.90
31309;DHT22;17936;52.446;10.840;2023-03-13T04:39:41;7.80;99.90
31309;DHT22;17936;52.446;10.840;2023-03-13T04:42:09;7.80;99.90
31309;DHT22;17936;52.446;10.840;2023-03-13T04:44:34;7.70;99.90
31309;DHT22;17936;52.446;10.840;2023-03-13T04:47:00;7.80;99.90
31309;DHT22;17936;52.446;10.840;2023-03-13T04:49:26;7.80;99.90
31309;DHT22;17936;52.446;10.840;2023-03-13T04:51:51;7.70;99.90
31309;DHT22;17936;52.446;10.840;2023-03-13T04:54:17;7.80;99.90
31309;DHT22;17936;52.446;10.840;2023-03-13T04:56:42;7.70;99.90
31309;DHT22;17936;52.446;10.840;2023-03-13T04:59:10;7.80;99.90
31309;DHT22;17936;52.446;10.840;2023-03-13T05:01:36;7.80;99.90
31309;DHT22;17936;52.446;10.840;2023-03-13T05:04:01;7.80;99.90
31309;DHT22;17936;52.446;10.840;2023-03-13T05:06:27;7.80;99.90
31309;DHT22;17936;52.446;10.840;2023-03-13T05:08:52;7.70;99.90
31309;DHT22;17936;52.446;10.840;2023-03-13T05:11:18;7.70;99.90
31309;DHT22;17936;52.446;10.840;2023-03-13T05:13:43;7.80;99.90
31309;DHT22;17936;52.446;10.840;2023-03-13T05:16:09;7.70;99.90
31309;DHT22;17936;52.446;10.840;2023-03-13T05:18:34;7.80;99.90
31309;DHT22;17936;52.446;10.840;2023-03-13T05:21:01;7.80;99.90
31309;DHT22;17936;52.446;10.840;2023-03-13T05:23:27;7.70;99.90
31309;DHT22;17936;52.446;10.840;2023-03-13T05:25:52;7.70;99.90
31309;DHT22;17936;52.446;10.840;2023-03-13T05:28:18;7.70;99.90
31309;DHT22;17936;52.446;10.840;2023-03-13T05:30:43;7.70;99.90
31309;DHT22;17936;52.446;10.840;2023-03-13T05:33:09;7.60;99.90
31309;DHT22;17936;52.446;10.840;2023-03-13T05:35:34;7.60;99.90
31309;DHT22;17936;52.446;10.840;2023-03-13T05:38:00;7.60;99.90
31309;DHT22;17936;52.446;10.840;2023-03-13T05:40:25;7.60;99.90
31309;DHT22;17936;52.446;10.840;2023-03-13T05:42:51;7.60;99.90
31309;DHT22;17936;52.446;10.840;2023-03-13T05:45:16;7.60;99.90
31309;DHT22;17936;52.446;10.840;2023-03-13T05:47:42;7.60;99.90
31309;DHT22;17936;52.446;10.840;2023-03-13T05:50:08;7.60;99.90
31309;DHT22;17936;52.446;10.840;2023-03-13T05:52:33;7.60;99.90
31309;DHT22;17936;52.446;10.840;2023-03-13T05:54:59;7.50;99.90
31309;DHT22;17936;52.446;10.840;2023-03-13T05:57:25;7.60;99.90
31309;DHT22;17936;52.446;10.840;2023-03-13T05:59:50;7.60;99.90
31309;DHT22;17936;52.446;10.840;2023-03-13T06:02:16;7.60;99.90
31309;DHT22;17936;52.446;10.840;2023-03-13T06:04:41;7.60;99.90
31309;DHT22;17936;52.446;10.840;2023-03-13T06:07:07;7.70;99.90
31309;DHT22;17936;52.446;10.840;2023-03-13T06:09:33;7.60;99.90
31309;DHT22;17936;52.446;10.840;2023-03-13T06:11:58;7.60;99.90
31309;DHT22;17936;52.446;10.840;2023-03-13T06:14:24;7.80;99.90
31309;DHT22;17936;52.446;10.840;2023-03-13T06:16:49;7.60;99.90
31309;DHT22;17936;52.446;10.840;2023-03-13T06:19:15;7.80;99.90
31309;DHT22;17936;52.446;10.840;2023-03-13T06:21:41;7.80;99.90
31309;DHT22;17936;52.446;10.840;2023-03-13T06:24:06;7.90;99.90
31309;DHT22;17936;52.446;10.840;2023-03-13T06:26:32;7.90;99.90
31309;DHT22;17936;52.446;10.840;2023-03-13T06:28:57;7.90;99.90
31309;DHT22;17936;52.446;10.840;2023-03-13T06:31:23;8.00;99.90
31309;DHT22;17936;52.446;10.840;2023-03-13T06:33:53;8.00;99.90
31309;DHT22;17936;52.446;10.840;2023-03-13T06:36:19;8.10;99.90
31309;DHT22;17936;52.446;10.840;2023-03-13T06:38:44;8.10;99.90
31309;DHT22;17936;52.446;10.840;2023-03-13T06:41:10;8.10;99.90
31309;DHT22;17936;52.446;10.840;2023-03-13T06:43:35;8.20;99.90
31309;DHT22;17936;52.446;10.840;2023-03-13T06:46:04;8.10;99.90
31309;DHT22;17936;52.446;10.840;2023-03-13T06:48:29;8.30;99.90
31309;DHT22;17936;52.446;10.840;2023-03-13T06:50:55;8.30;99.90
31309;DHT22;17936;52.446;10.840;2023-03-13T06:53:21;8.40;99.90
31309;DHT22;17936;52.446;10.840;2023-03-13T06:55:46;8.50;99.90
31309;DHT22;17936;52.446;10.840;2023-03-13T06:58:13;8.50;99.90
31309;DHT22;17936;52.446;10.840;2023-03-13T07:00:39;8.60;99.90
31309;DHT22;17936;52.446;10.840;2023-03-13T07:03:06;8.70;99.90
31309;DHT22;17936;52.446;10.840;2023-03-13T07:05:32;8.60;99.90
31309;DHT22;17936;52.446;10.840;2023-03-13T07:07:58;8.90;99.90
31309;DHT22;17936;52.446;10.840;2023-03-13T07:10:23;9.00;99.90
31309;DHT22;17936;52.446;10.840;2023-03-13T07:12:49;9.10;99.90
31309;DHT22;17936;52.446;10.840;2023-03-13T07:15:14;9.20;99.90
31309;DHT22;17936;52.446;10.840;2023-03-13T07:17:40;9.20;99.90
31309;DHT22;17936;52.446;10.840;2023-03-13T07:20:06;9.40;99.90
31309;DHT22;17936;52.446;10.840;2023-03-13T07:22:35;9.40;99.90
31309;DHT22;17936;52.446;10.840;2023-03-13T07:25:01;9.40;99.90
31309;DHT22;17936;52.446;10.840;2023-03-13T07:27:27;9.50;99.90
31309;DHT22;17936;52.446;10.840;2023-03-13T07:29:52;9.50;99.90
31309;DHT22;17936;52.446;10.840;2023-03-13T07:32:18;9.60;99.90
31309;DHT22;17936;52.446;10.840;2023-03-13T07:34:43;9.70;99.90
31309;DHT22;17936;52.446;10.840;2023-03-13T07:37:11;9.70;99.90
31309;DHT22;17936;52.446;10.840;2023-03-13T07:39:36;9.70;99.90
31309;DHT22;17936;52.446;10.840;2023-03-13T07:42:02;9.70;99.90
31309;DHT22;17936;52.446;10.840;2023-03-13T07:44:27;9.70;99.90
31309;DHT22;17936;52.446;10.840;2023-03-13T07:46:53;9.70;99.90
31309;DHT22;17936;52.446;10.840;2023-03-13T07:49:18;9.70;99.90
31309;DHT22;17936;52.446;10.840;2023-03-13T07:51:44;9.80;99.90
31309;DHT22;17936;52.446;10.840;2023-03-13T07:54:12;9.70;99.90
31309;DHT22;17936;52.446;10.840;2023-03-13T07:56:38;9.70;99.90
31309;DHT22;17936;52.446;10.840;2023-03-13T07:59:04;9.80;99.90
31309;DHT22;17936;52.446;10.840;2023-03-13T08:01:30;9.70;99.90
31309;DHT22;17936;52.446;10.840;2023-03-13T08:03:55;9.80;99.90
31309;DHT22;17936;52.446;10.840;2023-03-13T08:06:23;9.90;99.90
31309;DHT22;17936;52.446;10.840;2023-03-13T08:08:49;9.90;99.90
31309;DHT22;17936;52.446;10.840;2023-03-13T08:11:26;9.90;99.90
31309;DHT22;17936;52.446;10.840;2023-03-13T08:13:52;10.00;99.90
31309;DHT22;17936;52.446;10.840;2023-03-13T08:16:26;10.10;99.90
31309;DHT22;17936;52.446;10.840;2023-03-13T08:18:55;10.20;99.90
31309;DHT22;17936;52.446;10.840;2023-03-13T08:21:26;10.20;99.90
31309;DHT22;17936;52.446;10.840;2023-03-13T08:23:54;10.30;99.90
31309;DHT22;17936;52.446;10.840;2023-03-13T08:26:21;10.30;99.90
31309;DHT22;17936;52.446;10.840;2023-03-13T08:28:51;10.30;99.90
31309;DHT22;17936;52.446;10.840;2023-03-13T08:31:18;10.30;99.90
31309;DHT22;17936;52.446;10.840;2023-03-13T08:33:45;10.40;99.90
31309;DHT22;17936;52.446;10.840;2023-03-13T08:36:22;10.40;99.90
31309;DHT22;17936;52.446;10.840;2023-03-13T08:38:50;10.40;99.90
31309;DHT22;17936;52.446;10.840;2023-03-13T08:41:19;10.60;99.90
31309;DHT22;17936;52.446;10.840;2023-03-13T08:43:45;10.60;99.90
31309;DHT22;17936;52.446;10.840;2023-03-13T08:46:11;10.70;99.90
31309;DHT22;17936;52.446;10.840;2023-03-13T08:48:37;10.70;99.90
31309;DHT22;17936;52.446;10.840;2023-03-13T08:51:06;10.60;99.90
31309;DHT22;17936;52.446;10.840;2023-03-13T08:53:33;10.70;99.90
31309;DHT22;17936;52.446;10.840;2023-03-13T08:55:59;10.80;99.90
31309;DHT22;17936;52.446;10.840;2023-03-13T08:58:24;10.80;99.90
31309;DHT22;17936;52.446;10.840;2023-03-13T09:00:50;10.90;99.90
31309;DHT22;17936;52.446;10.840;2023-03-13T09:03:16;10.90;99.90
31309;DHT22;17936;52.446;10.840;2023-03-13T09:05:42;10.80;99.90
31309;DHT22;17936;52.446;10.840;2023-03-13T09:08:08;10.90;99.90
31309;DHT22;17936;52.446;10.840;2023-03-13T09:10:34;11.00;99.90
31309;DHT22;17936;52.446;10.840;2023-03-13T09:13:00;11.10;99.90
31309;DHT22;17936;52.446;10.840;2023-03-13T09:15:26;11.20;99.90
31309;DHT22;17936;52.446;10.840;2023-03-13T09:17:52;11.20;99.90
31309;DHT22;17936;52.446;10.840;2023-03-13T09:20:18;11.20;99.90
31309;DHT22;17936;52.446;10.840;2023-03-13T09:22:44;11.20;99.90
31309;DHT22;17936;52.446;10.840;2023-03-13T09:25:11;11.20;99.90
31309;DHT22;17936;52.446;10.840;2023-03-13T09:27:37;11.20;99.90
31309;DHT22;17936;52.446;10.840;2023-03-13T09:30:02;11.20;99.90
31309;DHT22;17936;52.446;10.840;2023-03-13T09:32:28;11.20;99.90
31309;DHT22;17936;52.446;10.840;2023-03-13T09:34:54;11.10;99.90
31309;DHT22;17936;52.446;10.840;2023-03-13T09:37:20;11.30;99.90
31309;DHT22;17936;52.446;10.840;2023-03-13T09:39:46;11.30;99.90
31309;DHT22;17936;52.446;10.840;2023-03-13T09:42:27;11.30;99.90
31309;DHT22;17936;52.446;10.840;2023-03-13T09:45:02;11.40;99.90
31309;DHT22;17936;52.446;10.840;2023-03-13T09:47:41;11.40;99.90
31309;DHT22;17936;52.446;10.840;2023-03-13T09:50:39;11.50;99.90
31309;DHT22;17936;52.446;10.840;2023-03-13T09:53:14;11.70;99.90
31309;DHT22;17936;52.446;10.840;2023-03-13T09:55:44;11.80;99.90
31309;DHT22;17936;52.446;10.840;2023-03-13T09:58:18;12.00;99.90
31309;DHT22;17936;52.446;10.840;2023-03-13T10:00:56;12.00;99.90
31309;DHT22;17936;52.446;10.840;2023-03-13T10:03:28;12.30;99.90
31309;DHT22;17936;52.446;10.840;2023-03-13T10:05:56;12.40;99.90
31309;DHT22;17936;52.446;10.840;2023-03-13T10:08:25;12.60;99.90
31309;DHT22;17936;52.446;10.840;2023-03-13T10:16:23;12.70;99.90
31309;DHT22;17936;52.446;10.840;2023-03-13T10:18:58;12.60;99.90
31309;DHT22;17936;52.446;10.840;2023-03-13T10:21:30;12.60;99.90
31309;DHT22;17936;52.446;10.840;2023-03-13T10:26:49;12.70;99.90
31309;DHT22;17936;52.446;10.840;2023-03-13T10:29:23;12.80;99.90
31309;DHT22;17936;52.446;10.840;2023-03-13T10:32:00;12.70;99.90
31309;DHT22;17936;52.446;10.840;2023-03-13T10:34:28;13.10;99.90
31309;DHT22;17936;52.446;10.840;2023-03-13T10:36:57;12.90;99.90
31309;DHT22;17936;52.446;10.840;2023-03-13T10:39:25;13.00;99.90
31309;DHT22;17936;52.446;10.840;2023-03-13T10:41:57;13.10;99.90
31309;DHT22;17936;52.446;10.840;2023-03-13T10:44:29;13.20;99.90
31309;DHT22;17936;52.446;10.840;2023-03-13T10:46:59;13.10;99.90
31309;DHT22;17936;52.446;10.840;2023-03-13T10:49:26;13.20;99.90
31309;DHT22;17936;52.446;10.840;2023-03-13T10:51:59;13.20;99.90
31309;DHT22;17936;52.446;10.840;2023-03-13T10:54:30;13.20;99.90
31309;DHT22;17936;52.446;10.840;2023-03-13T10:57:27;13.40;99.90
31309;DHT22;17936;52.446;10.840;2023-03-13T10:59:53;13.50;99.90
31309;DHT22;17936;52.446;10.840;2023-03-13T11:02:34;13.50;99.90
31309;DHT22;17936;52.446;10.840;2023-03-13T11:07:48;13.40;99.90
31309;DHT22;17936;52.446;10.840;2023-03-13T11:10:16;13.60;99.90
31309;DHT22;17936;52.446;10.840;2023-03-13T11:12:47;13.60;99.90
31309;DHT22;17936;52.446;10.840;2023-03-13T11:15:22;13.10;99.90
31309;DHT22;17936;52.446;10.840;2023-03-13T11:17:58;13.30;99.90
31309;DHT22;17936;52.446;10.840;2023-03-13T11:20:36;13.60;99.90
31309;DHT22;17936;52.446;10.840;2023-03-13T11:23:13;13.60;99.90
31309;DHT22;17936;52.446;10.840;2023-03-13T11:28:52;13.30;99.90
31309;DHT22;17936;52.446;10.840;2023-03-13T11:34:54;13.60;99.90
31309;DHT22;17936;52.446;10.840;2023-03-13T11:37:19;13.90;99.90
31309;DHT22;17936;52.446;10.840;2023-03-13T11:51:11;14.70;99.90
31309;DHT22;17936;52.446;10.840;2023-03-13T11:56:27;14.70;99.90
31309;DHT22;17936;52.446;10.840;2023-03-13T12:02:23;16.10;99.90
31309;DHT22;17936;52.446;10.840;2023-03-13T12:05:08;15.60;99.90
31309;DHT22;17936;52.446;10.840;2023-03-13T12:10:08;15.60;99.90
31309;DHT22;17936;52.446;10.840;2023-03-13T12:20:51;16.20;99.90
31309;DHT22;17936;52.446;10.840;2023-03-13T12:26:11;16.00;99.90
31309;DHT22;17936;52.446;10.840;2023-03-13T12:31:37;16.30;99.90
31309;DHT22;17936;52.446;10.840;2023-03-13T12:36:57;15.70;99.90
31309;DHT22;17936;52.446;10.840;2023-03-13T12:39:34;15.80;99.90
31309;DHT22;17936;52.446;10.840;2023-03-13T12:45:06;16.50;99.90
31309;DHT22;17936;52.446;10.840;2023-03-13T12:47:45;16.40;99.90
31309;DHT22;17936;52.446;10.840;2023-03-13T12:53:20;17.30;99.90
31309;DHT22;17936;52.446;10.840;2023-03-13T12:56:19;16.50;99.90
31309;DHT22;17936;52.446;10.840;2023-03-13T12:58:59;16.50;99.90
31309;DHT22;17936;52.446;10.840;2023-03-13T13:01:38;16.90;99.90
31309;DHT22;17936;52.446;10.840;2023-03-13T13:04:14;16.40;99.90
31309;DHT22;17936;52.446;10.840;2023-03-13T13:06:57;16.00;99.90
31309;DHT22;17936;52.446;10.840;2023-03-13T13:09:31;16.40;99.90
31309;DHT22;17936;52.446;10.840;2023-03-13T13:12:02;16.60;99.90
31309;DHT22;17936;52.446;10.840;2023-03-13T13:18:00;16.70;99.90
31309;DHT22;17936;52.446;10.840;2023-03-13T13:20:27;16.70;99.90
31309;DHT22;17936;52.446;10.840;2023-03-13T13:22:55;16.10;99.90
31309;DHT22;17936;52.446;10.840;2023-03-13T13:25:33;16.10;99.90
31309;DHT22;17936;52.446;10.840;2023-03-13T13:28:23;16.40;99.90
31309;DHT22;17936;52.446;10.840;2023-03-13T13:30:53;17.20;99.90
31309;DHT22;17936;52.446;10.840;2023-03-13T13:38:35;17.00;99.90
31309;DHT22;17936;52.446;10.840;2023-03-13T13:43:45;17.10;99.90
31309;DHT22;17936;52.446;10.840;2023-03-13T13:48:40;17.20;99.90
31309;DHT22;17936;52.446;10.840;2023-03-13T13:56:36;16.90;99.90
31309;DHT22;17936;52.446;10.840;2023-03-13T14:01:48;16.80;99.90
31309;DHT22;17936;52.446;10.840;2023-03-13T14:04:22;16.80;99.90
31309;DHT22;17936;52.446;10.840;2023-03-13T14:06:51;18.20;99.90
31309;DHT22;17936;52.446;10.840;2023-03-13T14:09:32;18.00;99.90
31309;DHT22;17936;52.446;10.840;2023-03-13T14:11:59;17.60;99.90
31309;DHT22;17936;52.446;10.840;2023-03-13T14:14:25;17.50;99.90
31309;DHT22;17936;52.446;10.840;2023-03-13T14:16:55;17.20;99.90
31309;DHT22;17936;52.446;10.840;2023-03-13T14:22:06;16.70;99.90
31309;DHT22;17936;52.446;10.840;2023-03-13T14:24:32;16.80;99.90
31309;DHT22;17936;52.446;10.840;2023-03-13T14:26:58;17.00;99.90
31309;DHT22;17936;52.446;10.840;2023-03-13T14:29:24;16.60;99.90
31309;DHT22;17936;52.446;10.840;2023-03-13T14:31:53;17.20;99.90
31309;DHT22;17936;52.446;10.840;2023-03-13T14:34:19;17.10;99.90
31309;DHT22;17936;52.446;10.840;2023-03-13T14:36:55;17.20;99.90
31309;DHT22;17936;52.446;10.840;2023-03-13T14:42:08;16.50;99.90
31309;DHT22;17936;52.446;10.840;2023-03-13T14:44:34;16.50;99.90
31309;DHT22;17936;52.446;10.840;2023-03-13T14:47:05;17.00;99.90
31309;DHT22;17936;52.446;10.840;2023-03-13T14:49:31;16.40;99.90
31309;DHT22;17936;52.446;10.840;2023-03-13T14:54:32;16.30;99.90
31309;DHT22;17936;52.446;10.840;2023-03-13T14:59:33;16.30;99.90
31309;DHT22;17936;52.446;10.840;2023-03-13T15:02:01;16.60;99.90
31309;DHT22;17936;52.446;10.840;2023-03-13T15:07:12;16.60;99.90
31309;DHT22;17936;52.446;10.840;2023-03-13T15:09:42;15.20;99.90
31309;DHT22;17936;52.446;10.840;2023-03-13T15:12:14;16.60;99.90
31309;DHT22;17936;52.446;10.840;2023-03-13T15:14:42;16.40;99.90
31309;DHT22;17936;52.446;10.840;2023-03-13T15:17:37;16.90;99.90
31309;DHT22;17936;52.446;10.840;2023-03-13T15:20:03;16.10;99.90
31309;DHT22;17936;52.446;10.840;2023-03-13T15:22:40;15.60;99.90
31309;DHT22;17936;52.446;10.840;2023-03-13T15:27:39;16.20;99.90
31309;DHT22;17936;52.446;10.840;2023-03-13T15:30:05;17.20;99.90
31309;DHT22;17936;52.446;10.840;2023-03-13T15:32:37;16.70;99.90
31309;DHT22;17936;52.446;10.840;2023-03-13T15:35:30;16.90;99.90
31309;DHT22;17936;52.446;10.840;2023-03-13T15:37:58;17.20;99.90
31309;DHT22;17936;52.446;10.840;2023-03-13T15:40:24;16.90;99.90
31309;DHT22;17936;52.446;10.840;2023-03-13T15:42:51;17.70;99.90
31309;DHT22;17936;52.446;10.840;2023-03-13T15:45:17;16.40;99.90
31309;DHT22;17936;52.446;10.840;2023-03-13T15:47:43;16.20;99.90
31309;DHT22;17936;52.446;10.840;2023-03-13T15:50:14;16.10;99.90
31309;DHT22;17936;52.446;10.840;2023-03-13T15:52:40;16.10;99.90
31309;DHT22;17936;52.446;10.840;2023-03-13T15:55:06;16.30;99.90
31309;DHT22;17936;52.446;10.840;2023-03-13T15:57:35;15.90;99.90
31309;DHT22;17936;52.446;10.840;2023-03-13T16:00:01;15.80;99.90
31309;DHT22;17936;52.446;10.840;2023-03-13T16:02:26;15.60;99.90
31309;DHT22;17936;52.446;10.840;2023-03-13T16:04:52;15.60;99.90
31309;DHT22;17936;52.446;10.840;2023-03-13T16:07:19;15.50;99.90
31309;DHT22;17936;52.446;10.840;2023-03-13T16:09:45;15.50;99.90
31309;DHT22;17936;52.446;10.840;2023-03-13T16:12:12;15.50;99.90
31309;DHT22;17936;52.446;10.840;2023-03-13T16:14:38;15.60;99.90
31309;DHT22;17936;52.446;10.840;2023-03-13T16:17:15;15.40;99.90
31309;DHT22;17936;52.446;10.840;2023-03-13T16:19:41;15.40;99.90
31309;DHT22;17936;52.446;10.840;2023-03-13T16:22:07;15.40;99.90
31309;DHT22;17936;52.446;10.840;2023-03-13T16:24:32;15.50;99.90
31309;DHT22;17936;52.446;10.840;2023-03-13T16:26:58;15.30;99.90
31309;DHT22;17936;52.446;10.840;2023-03-13T16:29:24;15.30;99.90
31309;DHT22;17936;52.446;10.840;2023-03-13T16:31:50;15.50;99.90
31309;DHT22;17936;52.446;10.840;2023-03-13T16:34:15;15.30;99.90
31309;DHT22;17936;52.446;10.840;2023-03-13T16:36:41;15.20;99.90
31309;DHT22;17936;52.446;10.840;2023-03-13T16:39:11;15.20;99.90
31309;DHT22;17936;52.446;10.840;2023-03-13T16:41:38;15.10;99.90
31309;DHT22;17936;52.446;10.840;2023-03-13T16:44:04;15.20;99.90
31309;DHT22;17936;52.446;10.840;2023-03-13T16:46:37;15.20;99.90
31309;DHT22;17936;52.446;10.840;2023-03-13T16:49:04;15.10;99.90
31309;DHT22;17936;52.446;10.840;2023-03-13T16:51:30;15.10;99.90
31309;DHT22;17936;52.446;10.840;2023-03-13T16:53:57;15.00;99.90
31309;DHT22;17936;52.446;10.840;2023-03-13T16:59:03;14.90;99.90
31309;DHT22;17936;52.446;10.840;2023-03-13T17:01:29;14.90;99.90
31309;DHT22;17936;52.446;10.840;2023-03-13T17:03:56;14.80;99.90
31309;DHT22;17936;52.446;10.840;2023-03-13T17:06:25;14.80;99.90
31309;DHT22;17936;52.446;10.840;2023-03-13T17:08:51;14.80;99.90
31309;DHT22;17936;52.446;10.840;2023-03-13T17:11:18;14.70;99.90
31309;DHT22;17936;52.446;10.840;2023-03-13T17:13:46;14.80;99.90
31309;DHT22;17936;52.446;10.840;2023-03-13T17:16:21;14.60;99.90
31309;DHT22;17936;52.446;10.840;2023-03-13T17:18:48;14.60;99.90
31309;DHT22;17936;52.446;10.840;2023-03-13T17:21:21;14.50;99.90